createdAt,value
2019-05-12T00:00:40.009Z,3.76
2019-05-12T00:03:39.972Z,3.83
2019-05-12T00:06:39.931Z,3.75
2019-05-12T00:09:39.913Z,3.71
2019-05-12T00:12:39.866Z,3.64
2019-05-12T00:15:39.853Z,3.70
2019-05-12T00:18:39.826Z,3.54
2019-05-12T00:21:40.020Z,3.53
2019-05-12T00:24:39.764Z,3.62
2019-05-12T00:27:39.723Z,3.67
2019-05-12T00:30:39.711Z,3.68
2019-05-12T00:33:39.642Z,3.71
2019-05-12T00:36:39.634Z,3.72
2019-05-12T00:39:39.586Z,3.72
2019-05-12T00:42:39.576Z,3.82
2019-05-12T00:45:39.535Z,3.92
2019-05-12T00:48:39.488Z,3.94
2019-05-12T00:51:39.467Z,3.96
2019-05-12T00:54:39.449Z,3.83
2019-05-12T00:57:39.394Z,3.80
2019-05-12T01:00:41.365Z,3.89
2019-05-12T01:03:39.330Z,3.78
2019-05-12T01:06:39.307Z,3.80
2019-05-12T01:09:39.279Z,3.82
2019-05-12T01:12:39.239Z,3.86
2019-05-12T01:15:39.194Z,3.72
2019-05-12T01:18:39.173Z,3.67
2019-05-12T01:21:39.136Z,3.68
2019-05-12T01:24:39.113Z,3.54
2019-05-12T01:27:39.065Z,3.58
2019-05-12T01:30:39.548Z,3.46
2019-05-12T01:33:39.017Z,3.46
2019-05-12T01:36:38.969Z,3.39
2019-05-12T01:39:38.962Z,3.39
2019-05-12T01:42:38.913Z,3.43
2019-05-12T01:45:38.892Z,3.49
2019-05-12T01:48:38.868Z,3.64
2019-05-12T01:51:38.808Z,3.57
2019-05-12T01:54:38.798Z,3.62
2019-05-12T01:57:38.877Z,3.57
2019-05-12T02:00:39.384Z,3.49
2019-05-12T02:03:38.693Z,3.47
2019-05-12T02:06:38.921Z,3.44
2019-05-12T02:09:38.821Z,3.31
2019-05-12T02:12:38.630Z,3.20
2019-05-12T02:15:38.608Z,3.02
2019-05-12T02:18:38.518Z,2.94
2019-05-12T02:21:38.510Z,2.84
2019-05-12T02:24:39.099Z,2.71
2019-05-12T02:27:38.544Z,2.91
2019-05-12T02:30:41.425Z,2.85
2019-05-12T02:33:38.371Z,2.71
2019-05-12T02:36:38.345Z,2.63
2019-05-12T02:39:38.318Z,2.61
2019-05-12T02:42:38.275Z,2.48
2019-05-12T02:45:38.249Z,2.61
2019-05-12T02:48:38.203Z,2.85
2019-05-12T02:51:38.219Z,2.74
2019-05-12T02:54:55.347Z,2.76
2019-05-12T02:57:38.118Z,2.73
2019-05-12T03:00:38.088Z,2.71
2019-05-12T03:03:38.063Z,2.66
2019-05-12T03:06:38.029Z,2.63
2019-05-12T03:09:37.976Z,2.52
2019-05-12T03:12:37.971Z,2.73
2019-05-12T03:15:38.089Z,2.69
2019-05-12T03:18:37.884Z,2.44
2019-05-12T03:21:37.878Z,2.61
2019-05-12T03:24:37.838Z,2.46
2019-05-12T03:27:37.796Z,2.23
2019-05-12T03:30:39.967Z,2.23
2019-05-12T03:33:43.682Z,2.40
2019-05-12T03:36:42.320Z,2.56
2019-05-12T03:39:37.658Z,2.66
2019-05-12T03:42:37.659Z,3.02
2019-05-12T03:45:37.594Z,3.12
2019-05-12T03:48:37.583Z,3.13
2019-05-12T03:51:37.534Z,3.16
2019-05-12T03:54:37.513Z,3.16
2019-05-12T03:57:37.477Z,3.36
2019-05-12T04:00:37.457Z,3.58
2019-05-12T04:03:37.431Z,3.52
2019-05-12T04:06:37.391Z,3.80
2019-05-12T04:09:37.350Z,3.70
2019-05-12T04:12:37.327Z,3.75
2019-05-12T04:15:37.275Z,3.83
2019-05-12T04:18:37.264Z,4.06
2019-05-12T04:21:37.235Z,4.18
2019-05-12T04:24:37.182Z,4.33
2019-05-12T04:27:37.165Z,4.46
2019-05-12T04:30:37.179Z,4.54
2019-05-12T04:33:37.108Z,4.67
2019-05-12T04:36:37.052Z,4.80
2019-05-12T04:39:37.039Z,4.86
2019-05-12T04:42:36.987Z,5.14
2019-05-12T04:45:36.979Z,5.66
2019-05-12T04:48:36.924Z,5.85
2019-05-12T04:51:36.914Z,7.23
2019-05-12T04:54:36.866Z,8.88
2019-05-12T04:57:36.855Z,9.18
2019-05-12T05:00:36.818Z,11.27
2019-05-12T05:03:36.798Z,11.16
2019-05-12T05:06:36.749Z,11.68
2019-05-12T05:09:36.714Z,12.11
2019-05-12T05:12:36.668Z,12.08
2019-05-12T05:15:36.655Z,12.54
2019-05-12T05:18:36.617Z,13.32
2019-05-12T05:21:36.591Z,14.42
2019-05-12T05:24:36.539Z,14.39
2019-05-12T05:27:36.523Z,14.13
2019-05-12T05:30:36.476Z,15.35
2019-05-12T05:33:36.476Z,15.06
2019-05-12T05:36:36.411Z,15.75
2019-05-12T05:39:47.901Z,16.62
2019-05-12T05:42:37.361Z,15.33
2019-05-12T05:45:36.336Z,16.44
2019-05-12T05:48:36.302Z,17.30
2019-05-12T05:51:39.579Z,17.48
2019-05-12T05:54:40.027Z,16.85
2019-05-12T05:57:36.204Z,17.81
2019-05-12T06:00:39.370Z,17.78
2019-05-12T06:03:36.126Z,17.63
2019-05-12T06:06:36.104Z,18.28
2019-05-12T06:09:36.076Z,18.73
2019-05-12T06:12:40.312Z,18.74
2019-05-12T06:15:40.709Z,18.64
2019-05-12T06:18:35.978Z,18.09
2019-05-12T06:21:38.224Z,19.23
2019-05-12T06:24:35.916Z,18.72
2019-05-12T06:27:36.146Z,19.02
2019-05-12T06:30:44.115Z,18.44
2019-05-12T06:33:36.793Z,18.09
2019-05-12T06:36:35.787Z,19.68
2019-05-12T06:39:35.731Z,20.47
2019-05-12T06:42:35.711Z,20.87
2019-05-12T06:45:41.871Z,17.95
2019-05-12T06:48:36.701Z,17.87
2019-05-12T06:51:35.601Z,18.64
2019-05-12T06:54:35.591Z,20.69
2019-05-12T06:57:40.128Z,21.91
2019-05-12T07:00:36.504Z,20.91
2019-05-12T07:03:37.255Z,20.71
2019-05-12T07:06:35.454Z,18.97
2019-05-12T07:09:44.283Z,18.72
2019-05-12T07:12:43.446Z,19.50
2019-05-12T07:15:40.439Z,19.73
2019-05-12T07:18:37.047Z,16.03
2019-05-12T07:21:35.303Z,17.53
2019-05-12T07:24:35.245Z,19.35
2019-05-12T07:27:39.334Z,20.16
2019-05-12T07:30:35.472Z,21.76
2019-05-12T07:33:41.580Z,22.43
2019-05-12T07:36:36.126Z,22.07
2019-05-12T07:39:37.071Z,22.46
2019-05-12T07:42:39.350Z,19.78
2019-05-12T07:45:35.042Z,20.34
2019-05-12T07:48:50.918Z,20.84
2019-05-12T07:51:38.300Z,20.71
2019-05-12T07:54:39.452Z,17.92
2019-05-12T07:57:50.674Z,21.41
2019-05-12T08:00:35.885Z,18.91
2019-05-12T08:03:34.842Z,17.11
2019-05-12T08:06:41.597Z,15.75
2019-05-12T08:09:36.511Z,14.60
2019-05-12T08:12:34.760Z,13.87
2019-05-12T08:15:34.703Z,13.12
2019-05-12T08:18:36.747Z,13.03
2019-05-12T08:21:43.842Z,19.32
2019-05-12T08:24:42.798Z,16.52
2019-05-12T08:27:39.224Z,15.28
2019-05-12T08:30:40.353Z,14.27
2019-05-12T08:33:35.512Z,17.67
2019-05-12T08:36:34.489Z,19.86
2019-05-12T08:39:34.452Z,19.70
2019-05-12T08:42:34.520Z,18.31
2019-05-12T08:45:37.407Z,22.46
2019-05-12T08:48:34.381Z,16.49
2019-05-12T08:51:34.340Z,18.42
2019-05-12T08:54:34.311Z,16.07
2019-05-12T08:57:48.850Z,16.77
2019-05-12T09:00:39.496Z,16.04
2019-05-12T09:03:35.196Z,17.11
2019-05-12T09:06:34.394Z,16.67
2019-05-12T09:09:34.156Z,15.35
2019-05-12T09:12:34.101Z,15.38
2019-05-12T09:15:34.759Z,15.54
2019-05-12T09:18:39.011Z,15.11
2019-05-12T09:21:37.118Z,17.15
2019-05-12T09:24:33.973Z,20.09
2019-05-12T09:27:33.967Z,22.50
2019-05-12T09:30:33.992Z,18.84
2019-05-12T09:33:34.769Z,16.93
2019-05-12T09:36:34.108Z,16.93
2019-05-12T09:39:42.315Z,18.00
2019-05-12T09:42:34.793Z,22.65
2019-05-12T09:45:33.762Z,19.23
2019-05-12T09:48:33.732Z,17.35
2019-05-12T09:51:41.781Z,15.85
2019-05-12T09:54:40.637Z,15.43
2019-05-12T09:57:40.883Z,15.45
2019-05-12T10:00:35.779Z,17.32
2019-05-12T10:03:38.837Z,18.83
2019-05-12T10:06:34.547Z,21.38
2019-05-12T10:09:33.643Z,20.99
2019-05-12T10:12:36.628Z,21.74
2019-05-12T10:15:34.439Z,19.17
2019-05-12T10:18:33.730Z,21.16
2019-05-12T10:21:35.629Z,22.59
2019-05-12T10:24:41.488Z,17.76
2019-05-12T10:27:34.662Z,17.84
2019-05-12T10:30:34.140Z,16.49
2019-05-12T10:33:33.843Z,19.68
2019-05-12T10:36:33.739Z,21.24
2019-05-12T10:39:33.519Z,17.70
2019-05-12T10:42:33.607Z,16.86
2019-05-12T10:45:33.129Z,17.38
2019-05-12T10:48:33.912Z,21.69
2019-05-12T10:51:34.351Z,22.74
2019-05-12T10:54:34.205Z,22.01
2019-05-12T10:57:33.429Z,23.09
2019-05-12T11:00:33.785Z,24.27
2019-05-12T11:03:33.767Z,23.40
2019-05-12T11:06:34.066Z,23.55
2019-05-12T11:09:34.504Z,24.38
2019-05-12T11:12:33.318Z,20.71
2019-05-12T11:15:34.265Z,21.66
2019-05-12T11:18:34.105Z,18.59
2019-05-12T11:21:33.659Z,16.27
2019-05-12T11:24:33.713Z,15.79
2019-05-12T11:27:34.499Z,15.84
2019-05-12T11:30:34.666Z,21.54
2019-05-12T11:33:34.166Z,24.17
2019-05-12T11:36:34.458Z,21.71
2019-05-12T11:39:36.679Z,18.55
2019-05-12T11:42:33.727Z,16.53
2019-05-12T11:45:33.580Z,16.75
2019-05-12T11:48:33.887Z,18.58
2019-05-12T11:51:34.081Z,24.27
2019-05-12T11:54:33.545Z,21.88
2019-05-12T11:57:34.089Z,22.94
2019-05-12T12:00:33.629Z,18.82
2019-05-12T12:03:33.666Z,19.61
2019-05-12T12:06:33.132Z,16.53
2019-05-12T12:09:32.247Z,22.17
2019-05-12T12:12:34.471Z,22.69
2019-05-12T12:15:34.221Z,19.61
2019-05-12T12:18:33.761Z,22.77
2019-05-12T12:21:34.938Z,23.24
2019-05-12T12:24:32.115Z,24.13
2019-05-12T12:27:32.064Z,26.55
2019-05-12T12:30:33.932Z,26.44
2019-05-12T12:33:36.713Z,24.83
2019-05-12T12:36:34.194Z,25.24
2019-05-12T12:39:31.963Z,21.39
2019-05-12T12:42:36.908Z,16.27
2019-05-12T12:45:36.631Z,16.09
2019-05-12T12:48:33.317Z,15.33
2019-05-12T12:51:34.130Z,15.36
2019-05-12T12:54:33.226Z,15.11
2019-05-12T12:57:33.513Z,14.50
2019-05-12T13:00:45.442Z,14.93
2019-05-12T13:03:34.052Z,15.28
2019-05-12T13:06:31.680Z,15.72
2019-05-12T13:09:33.460Z,15.36
2019-05-12T13:12:33.966Z,19.93
2019-05-12T13:15:33.913Z,23.43
2019-05-12T13:18:33.934Z,24.08
2019-05-12T13:21:33.526Z,24.53
2019-05-12T13:24:33.475Z,24.59
2019-05-12T13:27:36.143Z,22.75
2019-05-12T13:30:45.821Z,24.44
2019-05-12T13:33:33.825Z,24.80
2019-05-12T13:36:35.394Z,22.86
2019-05-12T13:39:33.569Z,20.91
2019-05-12T13:42:35.750Z,23.92
2019-05-12T13:45:33.624Z,25.86
2019-05-12T13:48:31.246Z,23.77
2019-05-12T13:51:33.230Z,24.97
2019-05-12T13:54:31.154Z,22.86
2019-05-12T13:57:31.149Z,21.04
2019-05-12T14:00:33.454Z,19.57
2019-05-12T14:03:33.471Z,18.61
2019-05-12T14:06:35.828Z,17.54
2019-05-12T14:09:34.207Z,17.13
2019-05-12T14:12:30.982Z,17.04
2019-05-12T14:15:30.941Z,16.70
2019-05-12T14:18:33.087Z,17.36
2019-05-12T14:21:33.064Z,17.67
2019-05-12T14:24:40.957Z,17.44
2019-05-12T14:27:33.163Z,17.50
2019-05-12T14:30:30.802Z,17.43
2019-05-12T14:33:35.967Z,16.65
2019-05-12T14:36:32.149Z,19.08
2019-05-12T14:39:30.683Z,18.74
2019-05-12T14:42:34.697Z,17.63
2019-05-12T14:45:33.268Z,17.79
2019-05-12T14:48:30.606Z,16.99
2019-05-12T14:51:30.573Z,16.73
2019-05-12T14:54:30.527Z,16.04
2019-05-12T14:57:37.260Z,15.76
2019-05-12T15:02:19.501Z,15.97
2019-05-12T15:05:16.324Z,15.78
2019-05-12T15:08:20.299Z,15.23
2019-05-12T15:11:16.252Z,15.19
2019-05-12T15:14:15.222Z,15.20
2019-05-12T15:17:22.363Z,14.90
2019-05-12T15:20:16.143Z,14.67
2019-05-12T15:23:15.128Z,14.81
2019-05-12T15:26:19.685Z,14.60
2019-05-12T15:29:19.974Z,14.39
2019-05-12T15:32:16.047Z,17.36
2019-05-12T15:35:18.316Z,18.21
2019-05-12T15:38:16.833Z,17.29
2019-05-12T15:41:16.916Z,16.67
2019-05-12T15:44:15.904Z,16.49
2019-05-12T15:47:14.847Z,16.45
2019-05-12T15:50:15.115Z,16.06
2019-05-12T15:53:22.284Z,15.02
2019-05-12T15:56:22.625Z,14.68
2019-05-12T15:59:17.425Z,15.12
2019-05-12T16:02:16.969Z,15.20
2019-05-12T16:05:19.690Z,16.06
2019-05-12T16:08:15.654Z,16.74
2019-05-12T16:11:14.598Z,16.71
2019-05-12T16:14:14.981Z,15.96
2019-05-12T16:17:18.962Z,15.66
2019-05-12T16:20:15.553Z,15.06
2019-05-12T16:23:23.355Z,14.75
2019-05-12T16:26:15.597Z,14.83
2019-05-12T16:29:14.424Z,14.60
2019-05-12T16:32:26.259Z,14.13
2019-05-12T16:35:20.119Z,13.89
2019-05-12T16:38:19.785Z,13.63
2019-05-12T16:41:14.492Z,13.40
2019-05-12T16:44:21.447Z,13.38
2019-05-12T16:47:18.717Z,13.25
2019-05-12T16:50:24.054Z,13.07
2019-05-12T16:53:21.851Z,12.95
2019-05-12T16:56:15.117Z,13.33
2019-05-12T16:59:20.133Z,13.47
2019-05-12T17:02:15.080Z,13.54
2019-05-12T17:05:20.253Z,13.30
2019-05-12T17:08:14.980Z,13.15
2019-05-12T17:11:27.267Z,13.20
2019-05-12T17:14:14.907Z,13.25
2019-05-12T17:17:14.513Z,13.43
2019-05-12T17:20:14.130Z,13.52
2019-05-12T17:23:14.053Z,13.88
2019-05-12T17:26:14.060Z,13.88
2019-05-12T17:29:13.979Z,14.21
2019-05-12T17:32:13.720Z,14.53
2019-05-12T17:35:14.657Z,14.46
2019-05-12T17:38:19.743Z,14.37
2019-05-12T17:41:17.859Z,14.20
2019-05-12T17:44:13.763Z,14.16
2019-05-12T17:47:21.214Z,14.13
2019-05-12T17:50:14.557Z,14.10
2019-05-12T17:53:14.794Z,13.76
2019-05-12T17:56:13.960Z,13.47
2019-05-12T17:59:14.988Z,13.18
2019-05-12T18:02:16.635Z,13.21
2019-05-12T18:05:15.718Z,13.12
2019-05-12T18:08:14.437Z,13.11
2019-05-12T18:11:15.945Z,13.02
2019-05-12T18:14:14.516Z,13.07
2019-05-12T18:17:14.143Z,13.12
2019-05-12T18:20:14.388Z,13.22
2019-05-12T18:23:13.516Z,13.12
2019-05-12T18:26:16.121Z,12.97
2019-05-12T18:29:14.673Z,12.84
2019-05-12T18:32:13.783Z,12.56
2019-05-12T18:35:13.794Z,12.34
2019-05-12T18:38:18.144Z,12.15
2019-05-12T18:41:14.074Z,11.99
2019-05-12T18:44:15.979Z,11.85
2019-05-12T18:47:16.750Z,11.72
2019-05-12T18:50:14.032Z,11.67
2019-05-12T18:53:16.661Z,11.61
2019-05-12T18:56:19.313Z,11.64
2019-05-12T18:59:16.438Z,11.47
2019-05-12T19:02:14.622Z,11.29
2019-05-12T19:05:21.789Z,11.10
2019-05-12T19:08:14.004Z,10.99
2019-05-12T19:11:20.039Z,11.02
2019-05-12T19:14:13.633Z,10.91
2019-05-12T19:17:14.090Z,10.84
2019-05-12T19:20:13.446Z,10.68
2019-05-12T19:23:14.186Z,10.44
2019-05-12T19:26:13.580Z,10.43
2019-05-12T19:29:14.183Z,10.43
2019-05-12T19:32:14.374Z,10.26
2019-05-12T19:35:15.882Z,10.12
2019-05-12T19:38:15.613Z,10.03
2019-05-12T19:41:13.987Z,10.04
2019-05-12T19:44:13.511Z,10.04
2019-05-12T19:47:13.748Z,9.88
2019-05-12T19:50:17.595Z,9.56
2019-05-12T19:53:13.387Z,9.28
2019-05-12T19:56:14.254Z,9.10
2019-05-12T19:59:14.633Z,9.05
2019-05-12T20:02:14.322Z,8.86
2019-05-12T20:05:15.037Z,8.78
2019-05-12T20:08:13.791Z,8.65
2019-05-12T20:11:14.182Z,8.79
2019-05-12T20:14:18.988Z,8.71
2019-05-12T20:17:12.934Z,8.84
2019-05-12T20:20:13.742Z,9.24
2019-05-12T20:23:14.043Z,9.20
2019-05-12T20:26:14.387Z,9.12
2019-05-12T20:29:13.798Z,8.88
2019-05-12T20:32:13.781Z,8.73
2019-05-12T20:35:13.857Z,8.84
2019-05-12T20:38:11.719Z,8.75
2019-05-12T20:41:20.192Z,8.68
2019-05-12T20:44:18.927Z,8.47
2019-05-12T20:47:13.987Z,8.30
2019-05-12T20:50:11.604Z,8.37
2019-05-12T20:53:11.552Z,8.33
2019-05-12T20:56:12.155Z,8.17
2019-05-12T20:59:13.555Z,7.94
2019-05-12T21:02:14.113Z,8.12
2019-05-12T21:05:16.623Z,8.22
2019-05-12T21:08:15.282Z,8.22
2019-05-12T21:11:13.426Z,8.17
2019-05-12T21:14:12.301Z,8.07
2019-05-12T21:17:15.778Z,8.21
2019-05-12T21:20:16.535Z,8.14
2019-05-12T21:23:13.416Z,8.12
2019-05-12T21:26:11.213Z,7.81
2019-05-12T21:29:13.328Z,7.94
2019-05-12T21:32:12.840Z,7.94
2019-05-12T21:35:19.050Z,7.75
2019-05-12T21:38:13.429Z,7.62
2019-05-12T21:41:13.367Z,7.56
2019-05-12T21:44:11.488Z,7.26
2019-05-12T21:47:10.979Z,7.29
2019-05-12T21:50:10.958Z,7.26
2019-05-12T21:53:17.657Z,7.15
2019-05-12T21:56:13.955Z,7.09
2019-05-12T21:59:12.742Z,7.17
2019-05-12T22:02:10.811Z,7.20
2019-05-12T22:05:16.306Z,7.16
2019-05-12T22:08:17.568Z,7.15
2019-05-12T22:11:11.862Z,7.07
2019-05-12T22:14:10.687Z,7.17
2019-05-12T22:17:10.672Z,6.99
2019-05-12T22:20:17.897Z,6.94
2019-05-12T22:23:14.329Z,6.73
2019-05-12T22:26:10.557Z,6.59
2019-05-12T22:29:10.548Z,6.71
2019-05-12T22:32:10.486Z,6.91
2019-05-12T22:35:13.162Z,6.58
2019-05-12T22:38:16.592Z,6.59
2019-05-12T22:41:13.532Z,6.54
2019-05-12T22:44:18.437Z,6.62
2019-05-12T22:47:13.677Z,6.36
2019-05-12T22:50:13.575Z,6.10
2019-05-12T22:53:10.262Z,5.63
2019-05-12T22:56:12.673Z,5.25
2019-05-12T22:59:13.648Z,4.91
2019-05-12T23:02:10.172Z,4.91
2019-05-12T23:05:15.197Z,5.23
2019-05-12T23:08:11.102Z,5.25
2019-05-12T23:11:10.098Z,5.23
2019-05-12T23:14:12.643Z,5.16
2019-05-12T23:17:11.032Z,5.31
2019-05-12T23:20:09.998Z,5.07
2019-05-12T23:23:15.342Z,4.88
2019-05-12T23:26:10.923Z,4.54
2019-05-12T23:29:09.885Z,4.86
2019-05-12T23:32:11.868Z,4.70
2019-05-12T23:35:09.811Z,4.50
2019-05-12T23:38:10.403Z,4.44
2019-05-12T23:41:10.774Z,4.28
2019-05-12T23:44:09.714Z,4.26
2019-05-12T23:47:09.702Z,4.12
2019-05-12T23:50:09.653Z,3.97
2019-05-12T23:53:09.638Z,3.71
2019-05-12T23:56:09.596Z,3.78
2019-05-12T23:59:09.595Z,3.54
